sensor_id;sensor_type;location;lat;lon;timestamp;P1;durP1;ratioP1;P2;durP2;ratioP2
21175;SDS011;10746;50.178;8.186;2022-10-16T00:01:46;4.63;;;3.75;;
21175;SDS011;10746;50.178;8.186;2022-10-16T00:04:13;6.40;;;4.40;;
21175;SDS011;10746;50.178;8.186;2022-10-16T00:06:40;10.07;;;4.20;;
21175;SDS011;10746;50.178;8.186;2022-10-16T00:09:06;10.10;;;4.38;;
21175;SDS011;10746;50.178;8.186;2022-10-16T00:11:35;20.58;;;4.72;;
21175;SDS011;10746;50.178;8.186;2022-10-16T00:14:04;8.30;;;4.25;;
21175;SDS011;10746;50.178;8.186;2022-10-16T00:16:34;5.10;;;4.07;;
21175;SDS011;10746;50.178;8.186;2022-10-16T00:19:01;6.03;;;3.90;;
21175;SDS011;10746;50.178;8.186;2022-10-16T00:21:28;7.57;;;4.20;;
21175;SDS011;10746;50.178;8.186;2022-10-16T00:23:57;4.97;;;4.10;;
21175;SDS011;10746;50.178;8.186;2022-10-16T00:26:25;4.28;;;3.75;;
21175;SDS011;10746;50.178;8.186;2022-10-16T00:28:53;4.10;;;3.75;;
21175;SDS011;10746;50.178;8.186;2022-10-16T00:31:20;6.20;;;4.60;;
21175;SDS011;10746;50.178;8.186;2022-10-16T00:33:49;12.23;;;5.38;;
21175;SDS011;10746;50.178;8.186;2022-10-16T00:36:17;11.63;;;5.10;;
21175;SDS011;10746;50.178;8.186;2022-10-16T00:38:45;9.77;;;4.78;;
21175;SDS011;10746;50.178;8.186;2022-10-16T00:41:13;6.60;;;4.30;;
21175;SDS011;10746;50.178;8.186;2022-10-16T00:43:42;11.20;;;4.30;;
21175;SDS011;10746;50.178;8.186;2022-10-16T00:46:13;4.75;;;4.22;;
21175;SDS011;10746;50.178;8.186;2022-10-16T00:48:42;4.60;;;4.18;;
21175;SDS011;10746;50.178;8.186;2022-10-16T00:51:16;6.38;;;4.80;;
21175;SDS011;10746;50.178;8.186;2022-10-16T00:53:45;15.23;;;4.70;;
21175;SDS011;10746;50.178;8.186;2022-10-16T00:56:12;5.55;;;4.93;;
21175;SDS011;10746;50.178;8.186;2022-10-16T00:58:39;5.85;;;4.55;;
21175;SDS011;10746;50.178;8.186;2022-10-16T01:01:06;6.53;;;5.15;;
21175;SDS011;10746;50.178;8.186;2022-10-16T01:03:33;5.85;;;4.10;;
21175;SDS011;10746;50.178;8.186;2022-10-16T01:06:05;10.07;;;5.10;;
21175;SDS011;10746;50.178;8.186;2022-10-16T01:08:44;7.85;;;4.97;;
21175;SDS011;10746;50.178;8.186;2022-10-16T01:11:17;11.57;;;4.80;;
21175;SDS011;10746;50.178;8.186;2022-10-16T01:13:49;5.53;;;4.78;;
21175;SDS011;10746;50.178;8.186;2022-10-16T01:16:20;7.97;;;5.22;;
21175;SDS011;10746;50.178;8.186;2022-10-16T01:18:54;6.65;;;5.13;;
21175;SDS011;10746;50.178;8.186;2022-10-16T01:21:28;8.05;;;5.28;;
21175;SDS011;10746;50.178;8.186;2022-10-16T01:24:01;8.60;;;5.75;;
21175;SDS011;10746;50.178;8.186;2022-10-16T01:26:36;8.40;;;5.65;;
21175;SDS011;10746;50.178;8.186;2022-10-16T01:29:18;6.05;;;5.38;;
21175;SDS011;10746;50.178;8.186;2022-10-16T01:31:52;8.15;;;5.28;;
21175;SDS011;10746;50.178;8.186;2022-10-16T01:34:22;6.72;;;5.18;;
21175;SDS011;10746;50.178;8.186;2022-10-16T01:36:56;5.72;;;5.18;;
21175;SDS011;10746;50.178;8.186;2022-10-16T01:39:29;24.02;;;5.75;;
21175;SDS011;10746;50.178;8.186;2022-10-16T01:42:00;5.82;;;5.25;;
21175;SDS011;10746;50.178;8.186;2022-10-16T01:44:32;14.85;;;5.00;;
21175;SDS011;10746;50.178;8.186;2022-10-16T01:47:01;7.65;;;4.78;;
21175;SDS011;10746;50.178;8.186;2022-10-16T01:49:30;7.65;;;4.68;;
21175;SDS011;10746;50.178;8.186;2022-10-16T01:51:59;4.93;;;4.47;;
21175;SDS011;10746;50.178;8.186;2022-10-16T01:54:30;7.00;;;4.20;;
21175;SDS011;10746;50.178;8.186;2022-10-16T01:56:59;3.95;;;3.53;;
21175;SDS011;10746;50.178;8.186;2022-10-16T01:59:28;4.45;;;2.85;;
21175;SDS011;10746;50.178;8.186;2022-10-16T02:01:59;3.28;;;3.08;;
21175;SDS011;10746;50.178;8.186;2022-10-16T02:04:31;4.60;;;3.83;;
21175;SDS011;10746;50.178;8.186;2022-10-16T02:07:00;6.03;;;5.03;;
21175;SDS011;10746;50.178;8.186;2022-10-16T02:09:27;4.57;;;4.28;;
21175;SDS011;10746;50.178;8.186;2022-10-16T02:11:55;4.85;;;4.07;;
21175;SDS011;10746;50.178;8.186;2022-10-16T02:14:27;4.72;;;3.88;;
21175;SDS011;10746;50.178;8.186;2022-10-16T02:16:56;5.15;;;3.63;;
21175;SDS011;10746;50.178;8.186;2022-10-16T02:19:22;10.85;;;3.95;;
21175;SDS011;10746;50.178;8.186;2022-10-16T02:21:50;4.63;;;4.07;;
21175;SDS011;10746;50.178;8.186;2022-10-16T02:24:22;4.40;;;4.00;;
21175;SDS011;10746;50.178;8.186;2022-10-16T02:26:56;4.10;;;3.80;;
21175;SDS011;10746;50.178;8.186;2022-10-16T02:29:27;3.67;;;3.38;;
21175;SDS011;10746;50.178;8.186;2022-10-16T02:31:56;4.78;;;3.72;;
21175;SDS011;10746;50.178;8.186;2022-10-16T02:34:27;4.30;;;3.80;;
21175;SDS011;10746;50.178;8.186;2022-10-16T02:36:56;4.88;;;3.70;;
21175;SDS011;10746;50.178;8.186;2022-10-16T02:39:24;5.78;;;4.18;;
21175;SDS011;10746;50.178;8.186;2022-10-16T02:41:53;9.05;;;4.25;;
21175;SDS011;10746;50.178;8.186;2022-10-16T02:44:19;11.55;;;4.68;;
21175;SDS011;10746;50.178;8.186;2022-10-16T02:46:46;5.47;;;4.97;;
21175;SDS011;10746;50.178;8.186;2022-10-16T02:49:14;5.82;;;5.22;;
21175;SDS011;10746;50.178;8.186;2022-10-16T02:51:41;6.80;;;4.68;;
21175;SDS011;10746;50.178;8.186;2022-10-16T02:54:08;4.65;;;3.72;;
21175;SDS011;10746;50.178;8.186;2022-10-16T02:56:34;4.07;;;3.78;;
21175;SDS011;10746;50.178;8.186;2022-10-16T02:59:01;3.85;;;3.25;;
21175;SDS011;10746;50.178;8.186;2022-10-16T03:01:28;5.40;;;3.20;;
21175;SDS011;10746;50.178;8.186;2022-10-16T03:03:54;3.75;;;3.17;;
21175;SDS011;10746;50.178;8.186;2022-10-16T03:06:22;3.95;;;2.97;;
21175;SDS011;10746;50.178;8.186;2022-10-16T03:08:49;3.80;;;2.55;;
21175;SDS011;10746;50.178;8.186;2022-10-16T03:11:16;2.50;;;2.38;;
21175;SDS011;10746;50.178;8.186;2022-10-16T03:13:43;4.85;;;2.40;;
21175;SDS011;10746;50.178;8.186;2022-10-16T03:16:09;2.40;;;2.30;;
21175;SDS011;10746;50.178;8.186;2022-10-16T03:18:36;5.07;;;2.40;;
21175;SDS011;10746;50.178;8.186;2022-10-16T03:21:03;4.30;;;2.50;;
21175;SDS011;10746;50.178;8.186;2022-10-16T03:23:31;2.70;;;2.47;;
21175;SDS011;10746;50.178;8.186;2022-10-16T03:25:58;4.47;;;2.80;;
21175;SDS011;10746;50.178;8.186;2022-10-16T03:28:25;4.22;;;2.92;;
21175;SDS011;10746;50.178;8.186;2022-10-16T03:30:51;4.07;;;3.25;;
21175;SDS011;10746;50.178;8.186;2022-10-16T03:33:18;3.35;;;3.15;;
21175;SDS011;10746;50.178;8.186;2022-10-16T03:35:50;3.15;;;2.80;;
21175;SDS011;10746;50.178;8.186;2022-10-16T03:38:18;4.25;;;2.70;;
21175;SDS011;10746;50.178;8.186;2022-10-16T03:40:47;3.42;;;2.78;;
21175;SDS011;10746;50.178;8.186;2022-10-16T03:43:14;4.55;;;2.63;;
21175;SDS011;10746;50.178;8.186;2022-10-16T03:45:41;4.10;;;2.30;;
21175;SDS011;10746;50.178;8.186;2022-10-16T03:48:08;3.05;;;2.65;;
21175;SDS011;10746;50.178;8.186;2022-10-16T03:50:34;6.28;;;2.78;;
21175;SDS011;10746;50.178;8.186;2022-10-16T03:53:01;4.18;;;2.90;;
21175;SDS011;10746;50.178;8.186;2022-10-16T03:55:28;5.65;;;3.15;;
21175;SDS011;10746;50.178;8.186;2022-10-16T03:57:56;4.80;;;2.83;;
21175;SDS011;10746;50.178;8.186;2022-10-16T04:00:22;6.20;;;2.47;;
21175;SDS011;10746;50.178;8.186;2022-10-16T04:02:49;2.17;;;2.08;;
21175;SDS011;10746;50.178;8.186;2022-10-16T04:05:16;2.70;;;2.40;;
21175;SDS011;10746;50.178;8.186;2022-10-16T04:07:43;2.13;;;2.03;;
21175;SDS011;10746;50.178;8.186;2022-10-16T04:10:09;2.22;;;2.13;;
21175;SDS011;10746;50.178;8.186;2022-10-16T04:12:36;2.70;;;2.00;;
21175;SDS011;10746;50.178;8.186;2022-10-16T04:15:04;3.53;;;2.22;;
21175;SDS011;10746;50.178;8.186;2022-10-16T04:17:31;2.28;;;2.17;;
21175;SDS011;10746;50.178;8.186;2022-10-16T04:19:58;3.15;;;2.20;;
21175;SDS011;10746;50.178;8.186;2022-10-16T04:22:25;2.25;;;2.15;;
21175;SDS011;10746;50.178;8.186;2022-10-16T04:24:52;2.70;;;2.50;;
21175;SDS011;10746;50.178;8.186;2022-10-16T04:27:18;2.47;;;2.28;;
21175;SDS011;10746;50.178;8.186;2022-10-16T04:29:45;7.65;;;3.08;;
21175;SDS011;10746;50.178;8.186;2022-10-16T04:32:13;6.15;;;2.30;;
21175;SDS011;10746;50.178;8.186;2022-10-16T04:34:40;3.17;;;2.10;;
21175;SDS011;10746;50.178;8.186;2022-10-16T04:37:07;2.17;;;2.08;;
21175;SDS011;10746;50.178;8.186;2022-10-16T04:39:33;3.03;;;2.10;;
21175;SDS011;10746;50.178;8.186;2022-10-16T04:42:00;3.83;;;2.30;;
21175;SDS011;10746;50.178;8.186;2022-10-16T04:44:27;3.10;;;2.83;;
21175;SDS011;10746;50.178;8.186;2022-10-16T04:46:54;2.80;;;2.60;;
21175;SDS011;10746;50.178;8.186;2022-10-16T04:49:22;2.85;;;2.60;;
21175;SDS011;10746;50.178;8.186;2022-10-16T04:51:49;3.00;;;2.80;;
21175;SDS011;10746;50.178;8.186;2022-10-16T04:54:15;2.45;;;2.35;;
21175;SDS011;10746;50.178;8.186;2022-10-16T04:56:42;4.90;;;2.75;;
21175;SDS011;10746;50.178;8.186;2022-10-16T04:59:12;3.15;;;2.65;;
21175;SDS011;10746;50.178;8.186;2022-10-16T05:01:39;4.80;;;2.40;;
21175;SDS011;10746;50.178;8.186;2022-10-16T05:04:06;2.60;;;2.50;;
21175;SDS011;10746;50.178;8.186;2022-10-16T05:06:34;3.00;;;2.80;;
21175;SDS011;10746;50.178;8.186;2022-10-16T05:09:00;4.43;;;2.60;;
21175;SDS011;10746;50.178;8.186;2022-10-16T05:11:27;5.47;;;3.17;;
21175;SDS011;10746;50.178;8.186;2022-10-16T05:13:54;3.90;;;3.20;;
21175;SDS011;10746;50.178;8.186;2022-10-16T05:16:20;4.35;;;3.05;;
21175;SDS011;10746;50.178;8.186;2022-10-16T05:18:47;3.00;;;2.80;;
21175;SDS011;10746;50.178;8.186;2022-10-16T05:21:14;4.38;;;3.30;;
21175;SDS011;10746;50.178;8.186;2022-10-16T05:23:42;6.10;;;3.42;;
21175;SDS011;10746;50.178;8.186;2022-10-16T05:26:09;4.10;;;3.70;;
21175;SDS011;10746;50.178;8.186;2022-10-16T05:28:36;5.75;;;3.75;;
21175;SDS011;10746;50.178;8.186;2022-10-16T05:31:06;6.40;;;4.40;;
21175;SDS011;10746;50.178;8.186;2022-10-16T05:33:34;5.63;;;4.30;;
21175;SDS011;10746;50.178;8.186;2022-10-16T05:36:01;6.47;;;4.10;;
21175;SDS011;10746;50.178;8.186;2022-10-16T05:38:28;7.57;;;4.90;;
21175;SDS011;10746;50.178;8.186;2022-10-16T05:40:56;9.68;;;4.78;;
21175;SDS011;10746;50.178;8.186;2022-10-16T05:43:23;8.23;;;5.40;;
21175;SDS011;10746;50.178;8.186;2022-10-16T05:45:53;7.32;;;4.68;;
21175;SDS011;10746;50.178;8.186;2022-10-16T05:48:21;6.90;;;4.90;;
21175;SDS011;10746;50.178;8.186;2022-10-16T05:50:48;20.15;;;5.03;;
21175;SDS011;10746;50.178;8.186;2022-10-16T05:53:21;5.80;;;5.10;;
21175;SDS011;10746;50.178;8.186;2022-10-16T05:55:51;6.60;;;5.15;;
21175;SDS011;10746;50.178;8.186;2022-10-16T05:58:20;7.88;;;5.18;;
21175;SDS011;10746;50.178;8.186;2022-10-16T06:00:52;8.45;;;4.63;;
21175;SDS011;10746;50.178;8.186;2022-10-16T06:03:19;7.05;;;4.95;;
21175;SDS011;10746;50.178;8.186;2022-10-16T06:05:46;5.97;;;4.78;;
21175;SDS011;10746;50.178;8.186;2022-10-16T06:08:13;10.82;;;4.60;;
21175;SDS011;10746;50.178;8.186;2022-10-16T06:10:39;8.02;;;4.97;;
21175;SDS011;10746;50.178;8.186;2022-10-16T06:13:06;11.05;;;5.10;;
21175;SDS011;10746;50.178;8.186;2022-10-16T06:15:34;9.93;;;5.18;;
21175;SDS011;10746;50.178;8.186;2022-10-16T06:18:01;6.25;;;5.55;;
21175;SDS011;10746;50.178;8.186;2022-10-16T06:20:27;7.20;;;5.35;;
21175;SDS011;10746;50.178;8.186;2022-10-16T06:22:54;7.78;;;5.20;;
21175;SDS011;10746;50.178;8.186;2022-10-16T06:25:21;11.02;;;5.70;;
21175;SDS011;10746;50.178;8.186;2022-10-16T06:27:47;10.32;;;6.22;;
21175;SDS011;10746;50.178;8.186;2022-10-16T06:30:14;8.45;;;4.85;;
21175;SDS011;10746;50.178;8.186;2022-10-16T06:32:42;7.05;;;5.75;;
21175;SDS011;10746;50.178;8.186;2022-10-16T06:35:09;8.05;;;6.35;;
21175;SDS011;10746;50.178;8.186;2022-10-16T06:37:36;9.88;;;7.10;;
21175;SDS011;10746;50.178;8.186;2022-10-16T06:40:03;9.15;;;6.53;;
21175;SDS011;10746;50.178;8.186;2022-10-16T06:42:30;10.18;;;6.80;;
21175;SDS011;10746;50.178;8.186;2022-10-16T06:44:57;8.38;;;6.70;;
21175;SDS011;10746;50.178;8.186;2022-10-16T06:47:23;8.95;;;6.13;;
21175;SDS011;10746;50.178;8.186;2022-10-16T06:49:51;8.00;;;5.78;;
21175;SDS011;10746;50.178;8.186;2022-10-16T06:52:18;8.70;;;6.30;;
21175;SDS011;10746;50.178;8.186;2022-10-16T06:54:45;9.20;;;5.72;;
21175;SDS011;10746;50.178;8.186;2022-10-16T06:57:11;8.88;;;5.75;;
21175;SDS011;10746;50.178;8.186;2022-10-16T06:59:38;8.25;;;5.95;;
21175;SDS011;10746;50.178;8.186;2022-10-16T07:02:05;10.07;;;6.28;;
21175;SDS011;10746;50.178;8.186;2022-10-16T07:04:33;9.93;;;6.47;;
21175;SDS011;10746;50.178;8.186;2022-10-16T07:07:01;12.18;;;7.63;;
21175;SDS011;10746;50.178;8.186;2022-10-16T07:09:28;14.07;;;7.55;;
21175;SDS011;10746;50.178;8.186;2022-10-16T07:11:54;15.43;;;8.27;;
21175;SDS011;10746;50.178;8.186;2022-10-16T07:14:21;12.23;;;8.02;;
21175;SDS011;10746;50.178;8.186;2022-10-16T07:16:48;10.65;;;7.95;;
21175;SDS011;10746;50.178;8.186;2022-10-16T07:19:15;13.77;;;7.80;;
21175;SDS011;10746;50.178;8.186;2022-10-16T07:21:43;12.15;;;8.02;;
21175;SDS011;10746;50.178;8.186;2022-10-16T07:24:12;10.27;;;7.13;;
21175;SDS011;10746;50.178;8.186;2022-10-16T07:26:41;10.75;;;7.28;;
21175;SDS011;10746;50.178;8.186;2022-10-16T07:29:12;11.23;;;7.60;;
21175;SDS011;10746;50.178;8.186;2022-10-16T07:31:39;9.77;;;6.53;;
21175;SDS011;10746;50.178;8.186;2022-10-16T07:34:06;11.80;;;7.90;;
21175;SDS011;10746;50.178;8.186;2022-10-16T07:36:33;9.88;;;7.07;;
21175;SDS011;10746;50.178;8.186;2022-10-16T07:39:00;14.07;;;7.60;;
21175;SDS011;10746;50.178;8.186;2022-10-16T07:41:28;12.48;;;7.47;;
21175;SDS011;10746;50.178;8.186;2022-10-16T07:43:57;11.10;;;7.63;;
21175;SDS011;10746;50.178;8.186;2022-10-16T07:46:26;9.82;;;7.30;;
21175;SDS011;10746;50.178;8.186;2022-10-16T07:48:53;10.15;;;6.55;;
21175;SDS011;10746;50.178;8.186;2022-10-16T07:51:21;7.40;;;6.00;;
21175;SDS011;10746;50.178;8.186;2022-10-16T07:53:48;9.40;;;6.57;;
21175;SDS011;10746;50.178;8.186;2022-10-16T07:56:16;9.77;;;6.30;;
21175;SDS011;10746;50.178;8.186;2022-10-16T07:58:45;10.85;;;5.93;;
21175;SDS011;10746;50.178;8.186;2022-10-16T08:01:14;13.35;;;6.43;;
21175;SDS011;10746;50.178;8.186;2022-10-16T08:03:42;10.07;;;6.10;;
21175;SDS011;10746;50.178;8.186;2022-10-16T08:06:10;8.25;;;5.82;;
21175;SDS011;10746;50.178;8.186;2022-10-16T08:08:37;9.80;;;5.78;;
21175;SDS011;10746;50.178;8.186;2022-10-16T08:11:04;11.40;;;5.65;;
21175;SDS011;10746;50.178;8.186;2022-10-16T08:13:31;7.68;;;5.80;;
21175;SDS011;10746;50.178;8.186;2022-10-16T08:15:59;8.48;;;6.22;;
21175;SDS011;10746;50.178;8.186;2022-10-16T08:18:26;8.88;;;6.13;;
21175;SDS011;10746;50.178;8.186;2022-10-16T08:20:56;10.65;;;6.57;;
21175;SDS011;10746;50.178;8.186;2022-10-16T08:23:23;11.15;;;6.55;;
21175;SDS011;10746;50.178;8.186;2022-10-16T08:25:51;9.07;;;6.28;;
21175;SDS011;10746;50.178;8.186;2022-10-16T08:28:18;8.13;;;7.05;;
21175;SDS011;10746;50.178;8.186;2022-10-16T08:30:45;9.50;;;6.28;;
21175;SDS011;10746;50.178;8.186;2022-10-16T08:33:13;13.70;;;6.88;;
21175;SDS011;10746;50.178;8.186;2022-10-16T08:35:40;11.32;;;6.75;;
21175;SDS011;10746;50.178;8.186;2022-10-16T08:38:07;11.25;;;6.60;;
21175;SDS011;10746;50.178;8.186;2022-10-16T08:40:34;12.35;;;7.00;;
21175;SDS011;10746;50.178;8.186;2022-10-16T08:43:12;8.13;;;6.30;;
21175;SDS011;10746;50.178;8.186;2022-10-16T08:46:10;9.55;;;6.75;;
21175;SDS011;10746;50.178;8.186;2022-10-16T08:48:48;7.43;;;5.82;;
21175;SDS011;10746;50.178;8.186;2022-10-16T08:51:18;9.73;;;6.22;;
21175;SDS011;10746;50.178;8.186;2022-10-16T08:53:49;6.90;;;5.60;;
21175;SDS011;10746;50.178;8.186;2022-10-16T08:56:20;9.35;;;6.43;;
21175;SDS011;10746;50.178;8.186;2022-10-16T08:58:47;9.27;;;5.68;;
21175;SDS011;10746;50.178;8.186;2022-10-16T09:01:15;8.45;;;5.07;;
21175;SDS011;10746;50.178;8.186;2022-10-16T09:03:49;6.93;;;4.82;;
21175;SDS011;10746;50.178;8.186;2022-10-16T09:06:30;3.53;;;3.22;;
21175;SDS011;10746;50.178;8.186;2022-10-16T09:09:13;3.88;;;3.00;;
21175;SDS011;10746;50.178;8.186;2022-10-16T09:11:51;2.95;;;2.67;;
21175;SDS011;10746;50.178;8.186;2022-10-16T09:14:33;3.55;;;3.25;;
21175;SDS011;10746;50.178;8.186;2022-10-16T09:17:14;7.78;;;3.92;;
21175;SDS011;10746;50.178;8.186;2022-10-16T09:19:55;4.03;;;3.28;;
21175;SDS011;10746;50.178;8.186;2022-10-16T09:22:32;3.35;;;3.10;;
21175;SDS011;10746;50.178;8.186;2022-10-16T09:25:00;5.55;;;3.65;;
21175;SDS011;10746;50.178;8.186;2022-10-16T09:27:36;5.80;;;4.20;;
21175;SDS011;10746;50.178;8.186;2022-10-16T09:30:06;4.50;;;3.95;;
21175;SDS011;10746;50.178;8.186;2022-10-16T09:32:37;4.13;;;3.45;;
21175;SDS011;10746;50.178;8.186;2022-10-16T09:35:11;3.20;;;2.90;;
21175;SDS011;10746;50.178;8.186;2022-10-16T09:37:41;3.00;;;2.78;;
21175;SDS011;10746;50.178;8.186;2022-10-16T09:40:12;3.25;;;2.90;;
21175;SDS011;10746;50.178;8.186;2022-10-16T09:42:39;2.72;;;2.53;;
21175;SDS011;10746;50.178;8.186;2022-10-16T09:45:19;2.60;;;2.40;;
21175;SDS011;10746;50.178;8.186;2022-10-16T09:47:47;2.42;;;2.22;;
21175;SDS011;10746;50.178;8.186;2022-10-16T09:50:22;3.22;;;2.47;;
21175;SDS011;10746;50.178;8.186;2022-10-16T09:52:51;2.03;;;1.90;;
21175;SDS011;10746;50.178;8.186;2022-10-16T09:55:29;2.35;;;2.03;;
21175;SDS011;10746;50.178;8.186;2022-10-16T09:57:55;2.20;;;2.10;;
21175;SDS011;10746;50.178;8.186;2022-10-16T10:00:23;2.10;;;2.00;;
21175;SDS011;10746;50.178;8.186;2022-10-16T10:02:50;3.90;;;2.20;;
21175;SDS011;10746;50.178;8.186;2022-10-16T10:05:18;2.28;;;2.17;;
21175;SDS011;10746;50.178;8.186;2022-10-16T10:07:53;1.92;;;1.83;;
21175;SDS011;10746;50.178;8.186;2022-10-16T10:10:23;2.45;;;1.80;;
21175;SDS011;10746;50.178;8.186;2022-10-16T10:12:51;2.10;;;2.00;;
21175;SDS011;10746;50.178;8.186;2022-10-16T10:15:18;1.80;;;1.70;;
21175;SDS011;10746;50.178;8.186;2022-10-16T10:17:47;3.05;;;1.70;;
21175;SDS011;10746;50.178;8.186;2022-10-16T10:20:21;1.90;;;1.80;;
21175;SDS011;10746;50.178;8.186;2022-10-16T10:22:50;1.67;;;1.58;;
21175;SDS011;10746;50.178;8.186;2022-10-16T10:25:23;2.20;;;2.08;;
21175;SDS011;10746;50.178;8.186;2022-10-16T10:28:03;1.20;;;1.20;;
21175;SDS011;10746;50.178;8.186;2022-10-16T10:30:38;1.70;;;1.60;;
21175;SDS011;10746;50.178;8.186;2022-10-16T10:33:14;1.40;;;1.40;;
21175;SDS011;10746;50.178;8.186;2022-10-16T10:35:53;2.50;;;1.70;;
21175;SDS011;10746;50.178;8.186;2022-10-16T10:38:34;3.92;;;1.90;;
21175;SDS011;10746;50.178;8.186;2022-10-16T10:41:14;1.73;;;1.63;;
21175;SDS011;10746;50.178;8.186;2022-10-16T10:44:01;1.60;;;1.50;;
21175;SDS011;10746;50.178;8.186;2022-10-16T10:46:34;1.30;;;1.30;;
21175;SDS011;10746;50.178;8.186;2022-10-16T10:49:14;1.75;;;1.65;;
21175;SDS011;10746;50.178;8.186;2022-10-16T10:51:57;1.83;;;1.52;;
21175;SDS011;10746;50.178;8.186;2022-10-16T10:54:32;3.70;;;1.90;;
21175;SDS011;10746;50.178;8.186;2022-10-16T10:57:09;3.60;;;1.75;;
21175;SDS011;10746;50.178;8.186;2022-10-16T10:59:48;1.60;;;1.60;;
21175;SDS011;10746;50.178;8.186;2022-10-16T11:02:32;1.83;;;1.73;;
21175;SDS011;10746;50.178;8.186;2022-10-16T11:08:04;3.47;;;2.53;;
21175;SDS011;10746;50.178;8.186;2022-10-16T11:10:38;2.95;;;2.55;;
21175;SDS011;10746;50.178;8.186;2022-10-16T11:13:13;2.40;;;2.20;;
21175;SDS011;10746;50.178;8.186;2022-10-16T11:15:48;5.88;;;2.22;;
21175;SDS011;10746;50.178;8.186;2022-10-16T11:18:18;2.45;;;2.25;;
21175;SDS011;10746;50.178;8.186;2022-10-16T11:20:49;2.00;;;1.90;;
21175;SDS011;10746;50.178;8.186;2022-10-16T11:23:23;2.08;;;1.98;;
21175;SDS011;10746;50.178;8.186;2022-10-16T11:25:55;2.13;;;1.88;;
21175;SDS011;10746;50.178;8.186;2022-10-16T11:28:26;2.38;;;1.90;;
21175;SDS011;10746;50.178;8.186;2022-10-16T11:30:59;1.95;;;1.85;;
21175;SDS011;10746;50.178;8.186;2022-10-16T11:33:30;2.17;;;1.52;;
21175;SDS011;10746;50.178;8.186;2022-10-16T11:36:05;2.20;;;2.00;;
21175;SDS011;10746;50.178;8.186;2022-10-16T11:38:39;8.30;;;1.98;;
21175;SDS011;10746;50.178;8.186;2022-10-16T11:41:17;1.90;;;1.80;;
21175;SDS011;10746;50.178;8.186;2022-10-16T11:43:49;2.17;;;2.08;;
21175;SDS011;10746;50.178;8.186;2022-10-16T11:46:23;2.70;;;2.50;;
21175;SDS011;10746;50.178;8.186;2022-10-16T11:48:52;3.72;;;3.15;;
21175;SDS011;10746;50.178;8.186;2022-10-16T11:51:29;4.70;;;3.67;;
21175;SDS011;10746;50.178;8.186;2022-10-16T11:54:04;3.28;;;2.97;;
21175;SDS011;10746;50.178;8.186;2022-10-16T11:56:40;5.72;;;3.08;;
21175;SDS011;10746;50.178;8.186;2022-10-16T11:59:13;5.90;;;3.00;;
21175;SDS011;10746;50.178;8.186;2022-10-16T12:01:47;5.85;;;2.95;;
21175;SDS011;10746;50.178;8.186;2022-10-16T12:04:20;3.17;;;2.83;;
21175;SDS011;10746;50.178;8.186;2022-10-16T12:06:54;2.60;;;2.40;;
21175;SDS011;10746;50.178;8.186;2022-10-16T12:09:27;4.28;;;2.58;;
21175;SDS011;10746;50.178;8.186;2022-10-16T12:11:56;3.20;;;2.80;;
21175;SDS011;10746;50.178;8.186;2022-10-16T12:17:24;2.20;;;2.10;;
21175;SDS011;10746;50.178;8.186;2022-10-16T12:20:12;4.22;;;2.40;;
21175;SDS011;10746;50.178;8.186;2022-10-16T12:22:47;2.53;;;2.33;;
21175;SDS011;10746;50.178;8.186;2022-10-16T12:25:21;7.28;;;2.92;;
21175;SDS011;10746;50.178;8.186;2022-10-16T12:28:00;4.18;;;2.40;;
21175;SDS011;10746;50.178;8.186;2022-10-16T12:30:29;3.03;;;2.42;;
21175;SDS011;10746;50.178;8.186;2022-10-16T12:32:58;3.38;;;2.40;;
21175;SDS011;10746;50.178;8.186;2022-10-16T12:35:28;3.35;;;2.30;;
21175;SDS011;10746;50.178;8.186;2022-10-16T12:38:07;2.40;;;2.15;;
21175;SDS011;10746;50.178;8.186;2022-10-16T12:41:03;7.57;;;2.00;;
21175;SDS011;10746;50.178;8.186;2022-10-16T12:43:37;1.77;;;1.70;;
21175;SDS011;10746;50.178;8.186;2022-10-16T12:46:21;1.70;;;1.60;;
21175;SDS011;10746;50.178;8.186;2022-10-16T12:48:50;5.20;;;1.98;;
21175;SDS011;10746;50.178;8.186;2022-10-16T12:51:24;1.90;;;1.80;;
21175;SDS011;10746;50.178;8.186;2022-10-16T12:53:59;2.28;;;2.17;;
21175;SDS011;10746;50.178;8.186;2022-10-16T12:56:31;1.85;;;1.75;;
21175;SDS011;10746;50.178;8.186;2022-10-16T12:59:09;3.08;;;1.90;;
21175;SDS011;10746;50.178;8.186;2022-10-16T13:01:54;2.45;;;2.25;;
21175;SDS011;10746;50.178;8.186;2022-10-16T13:04:36;2.00;;;1.90;;
21175;SDS011;10746;50.178;8.186;2022-10-16T13:07:19;1.90;;;1.80;;
21175;SDS011;10746;50.178;8.186;2022-10-16T13:10:06;1.98;;;1.88;;
21175;SDS011;10746;50.178;8.186;2022-10-16T13:12:48;3.17;;;1.90;;
21175;SDS011;10746;50.178;8.186;2022-10-16T13:15:47;2.10;;;1.95;;
21175;SDS011;10746;50.178;8.186;2022-10-16T13:18:25;1.92;;;1.83;;
21175;SDS011;10746;50.178;8.186;2022-10-16T13:21:03;2.30;;;2.13;;
21175;SDS011;10746;50.178;8.186;2022-10-16T13:23:42;2.13;;;1.88;;
21175;SDS011;10746;50.178;8.186;2022-10-16T13:26:18;1.98;;;1.85;;
21175;SDS011;10746;50.178;8.186;2022-10-16T13:28:52;3.75;;;1.90;;
21175;SDS011;10746;50.178;8.186;2022-10-16T13:31:20;2.00;;;1.90;;
21175;SDS011;10746;50.178;8.186;2022-10-16T13:33:49;1.92;;;1.83;;
21175;SDS011;10746;50.178;8.186;2022-10-16T13:36:20;2.08;;;1.70;;
21175;SDS011;10746;50.178;8.186;2022-10-16T13:38:49;3.50;;;1.83;;
21175;SDS011;10746;50.178;8.186;2022-10-16T13:41:31;1.90;;;1.80;;
21175;SDS011;10746;50.178;8.186;2022-10-16T13:44:00;7.68;;;2.35;;
21175;SDS011;10746;50.178;8.186;2022-10-16T13:46:27;2.70;;;2.00;;
21175;SDS011;10746;50.178;8.186;2022-10-16T13:49:00;3.15;;;1.60;;
21175;SDS011;10746;50.178;8.186;2022-10-16T13:51:29;1.95;;;1.85;;
21175;SDS011;10746;50.178;8.186;2022-10-16T13:53:57;1.70;;;1.60;;
21175;SDS011;10746;50.178;8.186;2022-10-16T13:56:25;2.17;;;1.70;;
21175;SDS011;10746;50.178;8.186;2022-10-16T13:59:01;3.00;;;1.90;;
21175;SDS011;10746;50.178;8.186;2022-10-16T14:01:30;2.20;;;1.88;;
21175;SDS011;10746;50.178;8.186;2022-10-16T14:04:01;1.98;;;1.88;;
21175;SDS011;10746;50.178;8.186;2022-10-16T14:06:30;2.25;;;2.08;;
21175;SDS011;10746;50.178;8.186;2022-10-16T14:08:59;2.10;;;2.00;;
21175;SDS011;10746;50.178;8.186;2022-10-16T14:11:27;2.35;;;2.03;;
21175;SDS011;10746;50.178;8.186;2022-10-16T14:13:55;3.83;;;1.80;;
21175;SDS011;10746;50.178;8.186;2022-10-16T14:16:27;2.40;;;2.10;;
21175;SDS011;10746;50.178;8.186;2022-10-16T14:18:58;1.88;;;1.77;;
21175;SDS011;10746;50.178;8.186;2022-10-16T14:21:27;1.90;;;1.80;;
21175;SDS011;10746;50.178;8.186;2022-10-16T14:23:57;2.65;;;1.90;;
21175;SDS011;10746;50.178;8.186;2022-10-16T14:26:25;2.13;;;2.03;;
21175;SDS011;10746;50.178;8.186;2022-10-16T14:29:06;2.28;;;2.00;;
21175;SDS011;10746;50.178;8.186;2022-10-16T14:31:39;3.40;;;2.20;;
21175;SDS011;10746;50.178;8.186;2022-10-16T14:36:49;2.03;;;1.80;;
21175;SDS011;10746;50.178;8.186;2022-10-16T14:39:17;5.00;;;2.10;;
21175;SDS011;10746;50.178;8.186;2022-10-16T14:41:46;4.47;;;2.30;;
21175;SDS011;10746;50.178;8.186;2022-10-16T14:44:15;4.72;;;1.98;;
21175;SDS011;10746;50.178;8.186;2022-10-16T14:46:47;4.38;;;2.20;;
21175;SDS011;10746;50.178;8.186;2022-10-16T14:49:15;3.58;;;2.30;;
21175;SDS011;10746;50.178;8.186;2022-10-16T14:51:45;2.83;;;2.40;;
21175;SDS011;10746;50.178;8.186;2022-10-16T14:54:12;2.58;;;2.38;;
21175;SDS011;10746;50.178;8.186;2022-10-16T14:56:44;2.67;;;2.40;;
21175;SDS011;10746;50.178;8.186;2022-10-16T14:59:14;3.38;;;2.67;;
21175;SDS011;10746;50.178;8.186;2022-10-16T15:01:44;4.47;;;2.85;;
21175;SDS011;10746;50.178;8.186;2022-10-16T15:04:20;5.38;;;2.65;;
21175;SDS011;10746;50.178;8.186;2022-10-16T15:06:47;4.63;;;2.97;;
21175;SDS011;10746;50.178;8.186;2022-10-16T15:09:16;4.82;;;2.72;;
21175;SDS011;10746;50.178;8.186;2022-10-16T15:11:44;3.13;;;2.83;;
21175;SDS011;10746;50.178;8.186;2022-10-16T15:14:11;4.38;;;2.80;;